Impacts METAR Board
IDs:

KPIT - Pittsburgh Intl, PA, US

Updated at: 1400 UTC 25 Jun 2019
Potential Impact None Slight Moderate High
Time 25/02Z 25/03Z 25/04Z 25/05Z 25/06Z 25/07Z 25/08Z 25/09Z 25/10Z 25/11Z 25/12Z 25/13Z 25/14Z
Temp68 68 70 69 69 67 67 67 67 67 68 70 72
Dewpt68 68 69 68 67 66 65 65 65 65 65 64 62
Altim29.73 29.75 29.74 29.77 29.79 29.82 29.84 29.84 29.86 29.88 29.90 29.92 29.93
VIS7 3 6 9 10 10 10 10 10 10 10 10 10
CIG3 12 15 5 8 8 7 13 12 250 250 17 --
CoverOVCOVCOVCBKNBKNBKNBKNBKNOVCBKNBKNBKNSCT
FltCatLIFRMVFRMVFRIFRIFRIFRIFRMVFRMVFRVFRVFRMVFRVFR
WX-TSRARA BRRA BR--------------------
WDir120250200250260240240230250240250250280
WSpd6 7 5 8 8 7 8 8 7 8 7 7 12
WGst-- -- -- -- 19 -- -- -- -- -- -- -- --
Raw hourly METARs
KPIT 250200Z 12006KT 7SM -TSRA BKN003 BKN025CB OVC080 20/20 A2973 RMK AO2 LTG DSNT NW RAB0157 TSB0159 OCNL LTGIC W-NW TS W-NW MOV NE P0000 T02000200 $
KPIT 250251Z 25007KT 3SM R28R/5000VP6000FT RA BR SCT003 BKN012 OVC026 20/20 A2975 RMK AO2 RAB0157 TSB0159E40 SLP073 P0078 60087 T02000200 55009 $
KPIT 250351Z 20005KT 6SM RA BR SCT008 OVC015 21/21 A2974 RMK AO2 RAE10B32 SLP068 P0005 T02110206 $
KPIT 250451Z 25008KT 9SM BKN005 BKN020 BKN050 21/20 A2977 RMK AO2 RAE38 SLP077 P0003 T02060200 402890178 $
KPIT 250551Z 26008G19KT 10SM BKN008 BKN016 21/19 A2979 RMK AO2 SLP086 60095 T02060194 10217 20200 53013 $
KPIT 250651Z 24007KT 10SM BKN008 BKN014 19/19 A2982 RMK AO2 SLP097 T01940189 $
KPIT 250751Z 24008KT 10SM BKN007 BKN014 19/18 A2984 RMK AO2 SLP101 T01940183 $
KPIT 250851Z 23008KT 10SM SCT007 BKN013 BKN026 19/18 A2984 RMK AO2 SLP103 T01940183 51017 $
KPIT 250951Z 25007KT 10SM BKN012 OVC250 19/18 A2986 RMK AO2 SLP109 BKN V SCT T01940183 $
KPIT 251051Z 24008KT 10SM SCT010 BKN250 19/18 A2988 RMK AO2 SLP116 T01940183 $
KPIT 251151Z 25007KT 10SM SCT011 SCT075 BKN250 20/18 A2990 RMK AO2 SLP126 70192 T02000183 10206 20194 53018 $
KPIT 251251Z 25007KT 10SM BKN017 BKN024 21/18 A2992 RMK AO2 SLP131 T02110178
KPIT 251351Z 28012KT 10SM SCT020 SCT250 22/17 A2993 RMK AO2 SLP135 T02220167



Page loaded:  14:12 UTC  |   07:12 AM Pacific  |   08:12 AM Mountain  |   09:12 AM Central  |   10:12 AM Eastern

 

ADVISORIES

FORECASTS

FORECASTS

OBSERVATIONS

USER TOOLS

ABOUT US